Time;durP1;ratioP1;P1;durP2;ratioP2;P2;SDS_P1;SDS_P2;PMS_P1;PMS_P2;Temp;Humidity;BMP_temperature;BMP_pressure;BME280_temperature;BME280_humidity;BME280_pressure;Samples;Min_cycle;Max_cycle;Signal;HPM_P1;HPM_P2
2021/06/04 00:20:21;;;;;;;445.37;429.50;;;18.30;99.90;;;;;;5898837;24;20538;-87
2021/06/04 00:26:05;;;;;;;;;;;;;;;;;;;;;
2021/06/04 00:29:16;;;;;;;;;;;;;;;;;;;;;
2021/06/04 00:32:25;;;;;;;;;;;;;;;;;;;;;
2021/06/04 00:35:06;;;;;;;;;;;;;;;;;;;;;
2021/06/04 00:37:46;;;;;;;;;;;;;;;;;;;;;
2021/06/04 00:40:31;;;;;;;626.37;604.87;;;18.30;99.90;;;;;;6193854;23;20823;-85
2021/06/04 00:46:39;;;;;;;;;;;;;;;;;;;;;
2021/06/04 00:49:24;;;;;;;546.47;527.67;;;18.20;99.90;;;;;;6233641;23;20435;-87
2021/06/04 00:52:06;;;;;;;;;;;;;;;;;;;;;
2021/06/04 00:55:08;;;;;;;547.10;528.47;;;18.20;99.90;;;;;;6225490;23;20712;-86
2021/06/04 00:57:56;;;;;;;;;;;;;;;;;;;;;
2021/06/04 01:01:21;;;;;;;548.90;530.13;;;18.30;99.90;;;;;;6211811;23;20537;-85
2021/06/04 01:04:32;;;;;;;;;;;;;;;;;;;;;
2021/06/04 01:07:18;;;;;;;;;;;;;;;;;;;;;
2021/06/04 01:10:29;;;;;;;634.57;612.80;;;18.00;99.90;;;;;;6256986;23;20886;-87
2021/06/04 01:13:31;;;;;;;;;;;;;;;;;;;;;
2021/06/04 01:16:45;;;;;;;619.83;598.30;;;17.90;99.90;;;;;;6220984;23;20890;-87
2021/06/04 01:19:59;;;;;;;623.47;601.47;;;17.90;99.90;;;;;;6246519;23;20473;-86
2021/06/04 01:23:20;;;;;;;;;;;;;;;;;;;;;
2021/06/04 01:26:29;;;;;;;;;;;;;;;;;;;;;
2021/06/04 01:43:08;;;;;;;742.80;716.77;;;17.90;99.90;;;;;;6008633;23;20498;-87
2021/06/04 01:45:55;;;;;;;;;;;;;;;;;;;;;
2021/06/04 01:55:04;;;;;;;760.20;732.60;;;17.90;99.90;;;;;;5966959;24;20423;-88
2021/06/04 01:57:51;;;;;;;765.97;738.17;;;18.00;99.90;;;;;;6094768;23;20442;-85
2021/06/04 02:16:51;;;;;;;;;;;;;;;;;;;;;
2021/06/04 02:19:48;;;;;;;;;;;;;;;;;;;;;
2021/06/04 02:34:43;;;;;;;1003.27;962.17;;;17.60;99.90;;;;;;5956277;23;20195;-87
2021/06/04 02:37:49;;;;;;;;;;;;;;;;;;;;;
2021/06/04 02:44:02;;;;;;;990.47;952.17;;;17.60;99.90;;;;;;6092350;23;21040;-86
2021/06/04 02:50:22;;;;;;;;;;;;;;;;;;;;;
2021/06/04 02:56:48;;;;;;;1009.40;966.80;;;17.40;99.90;;;;;;6245262;23;20411;-86
2021/06/04 03:05:57;;;;;;;892.50;856.90;;;17.50;99.90;;;;;;6244051;23;20426;-84
2021/06/04 03:08:46;;;;;;;;;;;;;;;;;;;;;
2021/06/04 03:11:19;;;;;;;883.57;845.67;;;17.40;99.90;;;;;;6256218;23;20405;-86
2021/06/04 03:17:52;;;;;;;;;;;;;;;;;;;;;
2021/06/04 03:20:49;;;;;;;;;;;;;;;;;;;;;
2021/06/04 03:23:38;;;;;;;956.80;916.30;;;17.50;99.90;;;;;;6154194;23;20407;-86
2021/06/04 03:26:44;;;;;;;1006.17;963.07;;;17.50;99.90;;;;;;6247829;23;20445;-88
2021/06/04 03:32:49;;;;;;;1061.03;999.90;;;17.30;99.90;;;;;;6246426;23;20882;-88
2021/06/04 03:35:19;;;;;;;1110.30;999.90;;;17.40;99.90;;;;;;6247590;22;20460;-86
2021/06/04 03:37:50;;;;;;;1147.80;999.90;;;17.50;99.90;;;;;;6248130;23;20689;-87
2021/06/04 03:40:28;;;;;;;1060.53;999.90;;;17.40;99.90;;;;;;6247590;23;20430;-85
2021/06/04 03:42:56;;;;;;;1015.93;970.17;;;17.40;99.90;;;;;;6257825;23;20417;-86
2021/06/04 03:45:28;;;;;;;1029.73;983.13;;;17.50;99.90;;;;;;6247779;23;20729;-85
2021/06/04 03:48:17;;;;;;;983.03;937.80;;;17.40;99.90;;;;;;6256146;23;20719;-87
2021/06/04 03:50:53;;;;;;;964.37;920.13;;;17.60;99.90;;;;;;6247189;23;20402;-86
2021/06/04 03:57:01;;;;;;;1033.10;986.97;;;17.50;99.90;;;;;;6245498;23;20414;-88
2021/06/04 03:59:35;;;;;;;1098.83;999.90;;;17.60;99.90;;;;;;6247627;23;20402;-87
2021/06/04 04:02:33;;;;;;;1091.57;999.90;;;17.50;99.90;;;;;;6256062;23;20414;-88
2021/06/04 04:05:14;;;;;;;;;;;;;;;;;;;;;
2021/06/04 04:08:05;;;;;;;;;;;;;;;;;;;;;
2021/06/04 04:10:43;;;;;;;1032.67;989.57;;;17.60;99.90;;;;;;6226438;23;20414;-86
2021/06/04 04:13:35;;;;;;;1033.73;987.47;;;17.70;99.90;;;;;;6257591;23;20411;-86
2021/06/04 04:16:09;;;;;;;1038.67;993.37;;;17.80;99.90;;;;;;6164017;23;20453;-87
2021/06/04 04:19:05;;;;;;;1051.77;999.90;;;17.70;99.90;;;;;;6152703;23;20491;-85
2021/06/04 04:21:51;;;;;;;;;;;;;;;;;;;;;
2021/06/04 04:24:28;;;;;;;1067.70;999.90;;;17.80;99.90;;;;;;6166985;23;20411;-86
2021/06/04 04:27:08;;;;;;;;;;;;;;;;;;;;;
2021/06/04 04:29:52;;;;;;;1068.00;999.90;;;18.10;99.90;;;;;;6179253;23;20403;-85
2021/06/04 04:32:39;;;;;;;1089.03;999.90;;;18.10;99.90;;;;;;6255996;23;20417;-86
2021/06/04 04:35:27;;;;;;;1153.00;999.90;;;18.20;99.90;;;;;;6236710;23;20464;-86
2021/06/04 04:37:58;;;;;;;1149.73;999.90;;;18.10;99.90;;;;;;6247196;23;20427;-86
2021/06/04 04:43:37;;;;;;;1050.23;999.90;;;18.10;99.90;;;;;;6257092;23;20403;-86
2021/06/04 04:46:18;;;;;;;;;;;;;;;;;;;;;
2021/06/04 04:48:50;;;;;;;1035.20;992.47;;;18.10;99.90;;;;;;6248525;23;20557;-87
2021/06/04 04:51:35;;;;;;;1129.90;999.90;;;18.30;99.90;;;;;;6257067;23;20414;-86
2021/06/04 04:54:16;;;;;;;956.73;918.50;;;18.50;99.90;;;;;;6207645;23;20416;-85
2021/06/04 04:57:07;;;;;;;814.37;781.77;;;18.70;99.90;;;;;;6246664;23;20729;-86
2021/06/04 05:00:30;;;;;;;;;;;;;;;;;;;;;
2021/06/04 05:03:07;;;;;;;556.27;534.57;;;19.00;99.90;;;;;;6194131;23;20403;-84
2021/06/04 05:08:52;;;;;;;344.67;330.43;;;19.60;99.90;;;;;;6257088;23;20490;-87
2021/06/04 05:12:16;;;;;;;179.60;169.13;;;19.80;99.90;;;;;;6229512;23;20407;-87
2021/06/04 05:15:12;;;;;;;;;;;;;;;;;;;;;
2021/06/04 05:17:56;;;;;;;;;;;;;;;;;;;;;
2021/06/04 05:20:29;;;;;;;58.90;33.07;;;20.70;99.90;;;;;;6163404;23;20438;-85
2021/06/04 05:30:08;;;;;;;71.37;25.03;;;21.30;99.90;;;;;;6046874;23;20429;-86
2021/06/04 05:32:57;;;;;;;65.10;26.03;;;21.60;99.90;;;;;;6007257;23;20544;-87
2021/06/04 05:35:27;;;;;;;68.83;31.40;;;21.70;99.90;;;;;;6018438;23;20418;-83
2021/06/04 05:37:57;;;;;;;66.60;30.33;;;21.70;99.90;;;;;;6008936;23;20789;-84
2021/06/04 05:40:28;;;;;;;82.53;36.23;;;21.90;99.90;;;;;;6157148;23;20486;-84
2021/06/04 05:42:56;;;;;;;75.60;38.00;;;21.70;99.90;;;;;;6256516;23;20400;-83
2021/06/04 05:45:26;;;;;;;76.70;42.43;;;21.50;99.90;;;;;;6256501;23;20419;-84
2021/06/04 05:47:54;;;;;;;77.10;43.17;;;21.40;99.90;;;;;;6244394;23;20446;-84
2021/06/04 05:50:24;;;;;;;81.50;41.67;;;21.50;99.90;;;;;;6256595;23;20415;-84
2021/06/04 05:53:00;;;;;;;82.50;42.60;;;21.40;99.90;;;;;;6255815;23;20914;-84
2021/06/04 05:55:28;;;;;;;71.70;35.67;;;21.70;99.90;;;;;;6256514;23;20989;-83
2021/06/04 05:58:01;;;;;;;84.37;35.47;;;22.00;99.90;;;;;;6256219;23;20469;-84
2021/06/04 06:00:35;;;;;;;77.47;30.47;;;22.10;99.90;;;;;;6246286;23;20438;-84
2021/06/04 06:03:07;;;;;;;79.60;28.17;;;22.10;99.90;;;;;;6254537;23;20494;-85
2021/06/04 06:05:33;;;;;;;73.70;24.50;;;22.20;99.90;;;;;;6256199;23;20411;-82
2021/06/04 06:08:01;;;;;;;79.90;30.50;;;22.60;99.90;;;;;;6246458;23;20456;-84
2021/06/04 06:10:30;;;;;;;71.73;28.80;;;22.70;97.50;;;;;;6256052;23;20399;-84
2021/06/04 06:12:56;;;;;;;71.87;24.23;;;23.00;91.60;;;;;;6246102;23;20399;-82
2021/06/04 06:15:28;;;;;;;73.53;25.50;;;23.20;90.60;;;;;;6255912;23;20905;-83
2021/06/04 06:17:54;;;;;;;74.70;27.57;;;23.50;84.80;;;;;;6244866;23;20410;-84
2021/06/04 06:20:32;;;;;;;75.67;30.63;;;23.70;80.40;;;;;;6246086;23;20845;-83
2021/06/04 06:23:27;;;;;;;;;;;;;;;;;;;;;
2021/06/04 06:26:36;;;;;;;77.00;35.67;;;24.60;66.00;;;;;;6211280;23;20382;-85
2021/06/04 06:29:04;;;;;;;76.53;26.50;;;25.30;56.90;;;;;;6245617;23;20401;-80
2021/06/04 07:35:04;;;;;;;138.80;126.77;;;25.90;38.90;;;;;;5862681;24;20501;-83
2021/06/04 07:37:30;;;;;;;95.40;83.28;;;26.50;33.10;;;;;;6106065;23;20435;-82
2021/06/04 07:39:57;;;;;;;73.27;31.80;;;26.30;31.70;;;;;;6245297;23;20596;-83
2021/06/04 07:42:30;;;;;;;70.67;21.50;;;26.10;31.40;;;;;;6246112;23;20459;-87
2021/06/04 07:45:04;;;;;;;84.17;59.00;;;26.40;31.50;;;;;;6257684;23;20953;-87
2021/06/04 07:47:32;;;;;;;64.50;14.60;;;26.20;31.50;;;;;;6244268;23;20405;-83
2021/06/04 07:49:59;;;;;;;69.20;16.53;;;25.80;31.20;;;;;;6246957;23;20405;-88
2021/06/04 07:52:26;;;;;;;65.20;17.50;;;25.80;33.10;;;;;;6257919;23;20411;-83
2021/06/04 07:54:58;;;;;;;68.20;15.10;;;26.10;30.70;;;;;;6245697;23;20416;-82
2021/06/04 07:57:24;;;;;;;72.33;19.63;;;26.50;34.00;;;;;;6245965;23;20377;-82
2021/06/04 07:59:51;;;;;;;68.73;18.20;;;26.90;32.00;;;;;;6245977;23;20378;-83
2021/06/04 08:02:17;;;;;;;71.50;18.80;;;26.90;30.00;;;;;;6254050;23;20443;-83
2021/06/04 08:04:44;;;;;;;69.00;22.57;;;27.00;32.10;;;;;;6245445;23;20407;-82
2021/06/04 08:07:10;;;;;;;70.73;21.20;;;26.90;28.00;;;;;;6255705;23;20431;-83
2021/06/04 08:09:41;;;;;;;70.67;20.20;;;27.00;28.40;;;;;;6246195;23;20449;-84
2021/06/04 08:12:11;;;;;;;68.47;22.67;;;27.50;25.10;;;;;;6247232;23;20406;-83
2021/06/04 08:14:38;;;;;;;72.40;29.30;;;27.70;24.00;;;;;;6247553;23;20378;-82
2021/06/04 08:17:08;;;;;;;69.67;25.47;;;27.20;24.50;;;;;;6246390;23;20782;-86
2021/06/04 08:19:39;;;;;;;79.43;35.77;;;26.90;26.10;;;;;;6257298;23;20381;-83
2021/06/04 08:22:08;;;;;;;83.83;54.37;;;26.90;28.30;;;;;;6257501;23;20409;-83
2021/06/04 08:24:36;;;;;;;72.07;24.30;;;26.40;30.10;;;;;;6247453;23;20406;-82
2021/06/04 08:27:06;;;;;;;78.00;24.77;;;26.30;30.50;;;;;;6257115;23;20493;-83
2021/06/04 08:29:34;;;;;;;73.27;20.87;;;25.90;31.30;;;;;;6257083;23;20787;-84
2021/06/04 08:32:08;;;;;;;70.60;16.33;;;25.90;32.50;;;;;;6245907;22;20569;-83
2021/06/04 08:34:34;;;;;;;70.63;15.67;;;26.30;32.00;;;;;;6250636;23;20408;-83
2021/06/04 08:37:01;;;;;;;69.40;15.27;;;26.90;28.90;;;;;;6247264;23;20767;-84
2021/06/04 08:39:33;;;;;;;72.40;16.13;;;27.00;29.60;;;;;;6246833;23;20403;-84
2021/06/04 08:42:24;;;;;;;68.87;15.73;;;27.00;26.50;;;;;;6246748;23;20466;-84
2021/06/04 08:45:10;;;;;;;72.70;19.43;;;26.90;27.30;;;;;;6153651;23;20900;-83
2021/06/04 08:47:40;;;;;;;73.17;25.20;;;27.20;26.80;;;;;;6152762;23;21000;-83
2021/06/04 08:50:22;;;;;;;78.77;30.20;;;27.80;26.30;;;;;;6163774;23;20412;-82
2021/06/04 08:52:59;;;;;;;77.47;30.40;;;28.00;21.90;;;;;;6163968;23;20721;-82
2021/06/04 08:55:33;;;;;;;74.00;21.43;;;27.30;23.00;;;;;;6163759;23;20412;-82
2021/06/04 08:58:19;;;;;;;78.63;24.87;;;27.00;24.40;;;;;;6163707;23;20412;-82
2021/06/04 09:00:58;;;;;;;73.27;19.23;;;26.90;24.30;;;;;;6153874;23;20525;-82
2021/06/04 09:03:28;;;;;;;82.23;44.23;;;26.50;23.10;;;;;;6215029;23;20415;-83
2021/06/04 09:05:58;;;;;;;79.90;32.30;;;26.60;24.20;;;;;;6256432;23;20540;-82
2021/06/04 09:08:29;;;;;;;78.40;32.33;;;26.40;25.90;;;;;;6246667;23;20385;-81
2021/06/04 09:10:58;;;;;;;78.67;20.70;;;26.30;25.40;;;;;;6246495;23;20446;-83
2021/06/04 09:13:30;;;;;;;86.37;69.23;;;26.50;24.60;;;;;;6246333;23;20374;-83
2021/06/04 09:16:03;;;;;;;89.17;53.77;;;26.60;22.90;;;;;;6256702;23;20494;-81
2021/06/04 09:18:40;;;;;;;91.60;48.57;;;26.90;24.40;;;;;;6244922;23;20403;-82
2021/06/04 09:21:14;;;;;;;75.80;33.23;;;27.90;20.50;;;;;;6246581;23;20405;-82
2021/06/04 09:23:43;;;;;;;82.10;39.97;;;28.20;17.50;;;;;;6246785;23;20404;-82
2021/06/04 09:26:13;;;;;;;81.78;21.90;;;28.30;16.10;;;;;;6245594;23;20399;-81
2021/06/04 09:28:46;;;;;;;78.40;21.20;;;27.60;16.50;;;;;;6246616;23;20187;-82
2021/06/04 09:31:25;;;;;;;76.30;22.40;;;27.30;18.70;;;;;;6246626;22;20431;-82
2021/06/04 09:33:54;;;;;;;78.03;25.53;;;27.60;15.50;;;;;;6244575;23;20400;-82
2021/06/04 09:36:25;;;;;;;79.63;30.50;;;28.10;13.30;;;;;;6256906;23;20390;-83
2021/06/04 09:38:54;;;;;;;75.60;23.27;;;28.30;10.10;;;;;;6246511;23;20470;-87
2021/06/04 09:41:39;;;;;;;75.57;26.70;;;28.60;15.60;;;;;;6246487;23;20436;-87
2021/06/04 09:44:24;;;;;;;74.80;22.77;;;29.60;10.60;;;;;;6256379;23;20384;-87
2021/06/04 09:47:21;;;;;;;77.07;23.60;;;29.20;6.90;;;;;;6245322;23;20446;-89
2021/06/04 09:50:26;;;;;;;84.40;30.13;;;28.90;10.30;;;;;;6150842;23;20731;-85
2021/06/04 09:53:15;;;;;;;82.17;22.50;;;29.40;7.30;;;;;;6117541;23;20421;-85
2021/06/04 09:55:55;;;;;;;81.87;29.43;;;30.60;5.60;;;;;;6153007;23;20403;-87
2021/06/04 09:58:55;;;;;;;83.47;30.23;;;29.80;4.60;;;;;;6163272;23;20387;-88
2021/06/04 10:01:34;;;;;;;80.40;27.40;;;29.30;6.20;;;;;;6153148;23;20445;-86
2021/06/04 10:04:31;;;;;;;84.40;29.33;;;28.70;6.70;;;;;;6162412;23;20930;-87
2021/06/04 10:07:51;;;;;;;;;;;;;;;;;;;;;
2021/06/04 10:14:31;;;;;;;;;;;;;;;;;;;;;
2021/06/04 10:20:46;;;;;;;79.33;22.70;;;31.70;1.00;;;;;;6244024;23;20382;-87
2021/06/04 10:23:37;;;;;;;84.23;28.53;;;32.00;1.00;;;;;;6184073;23;20418;-87
2021/06/04 10:26:38;;;;;;;80.10;32.03;;;33.00;1.00;;;;;;6255940;23;20429;-88
2021/06/04 10:29:23;;;;;;;87.87;51.57;;;32.90;1.00;;;;;;6245980;23;20442;-85
2021/06/04 10:32:04;;;;;;;92.57;57.30;;;32.10;1.00;;;;;;6199855;23;20441;-88
2021/06/04 10:35:28;;;;;;;86.60;52.17;;;32.90;1.00;;;;;;6255794;23;20385;-88
2021/06/04 10:38:22;;;;;;;;;;;;;;;;;;;;;
2021/06/04 10:41:34;;;;;;;85.67;33.67;;;34.10;1.00;;;;;;6253697;23;20378;-82
2021/06/04 10:44:30;;;;;;;83.67;38.77;;;33.70;1.00;;;;;;6254619;23;20761;-83
2021/06/04 10:47:36;;;;;;;;;;;;;;;;;;;;;
2021/06/04 10:50:35;;;;;;;;;;;;;;;;;;;;;
2021/06/04 10:53:12;;;;;;;80.90;23.93;;;34.00;1.00;;;;;;6140935;23;20736;-82
2021/06/04 10:59:15;;;;;;;83.53;24.90;;;34.10;1.00;;;;;;6063311;23;20783;-82
2021/06/04 11:01:57;;;;;;;81.37;25.37;;;35.40;1.00;;;;;;6244468;23;20459;-84
2021/06/04 11:04:36;;;;;;;84.20;34.17;;;34.30;1.00;;;;;;6255706;23;20418;-83
2021/06/04 11:07:16;;;;;;;83.83;25.70;;;33.40;1.00;;;;;;6246542;23;20399;-83
2021/06/04 11:10:03;;;;;;;78.30;24.73;;;33.50;1.00;;;;;;6255670;23;20457;-82
2021/06/04 11:12:47;;;;;;;81.97;27.10;;;33.10;1.00;;;;;;6255768;23;20386;-83
2021/06/04 11:15:20;;;;;;;84.83;29.27;;;33.50;1.00;;;;;;6245930;23;20398;-80
2021/06/04 11:17:50;;;;;;;80.80;26.80;;;34.50;1.00;;;;;;6244510;23;20378;-82
2021/06/04 11:20:21;;;;;;;90.53;42.00;;;34.00;1.00;;;;;;6245596;23;20399;-82
2021/06/04 11:22:57;;;;;;;90.40;37.47;;;32.70;1.00;;;;;;6256077;23;20698;-80
2021/06/04 11:25:38;;;;;;;85.23;39.37;;;32.50;1.00;;;;;;6255670;23;20378;-80
2021/06/04 11:28:19;;;;;;;89.20;46.00;;;31.60;1.00;;;;;;6256047;23;20407;-80
2021/06/04 11:30:50;;;;;;;88.90;43.77;;;32.00;1.00;;;;;;6245834;22;20401;-81
2021/06/04 11:33:18;;;;;;;87.60;41.13;;;33.10;1.00;;;;;;6254689;23;20384;-78
2021/06/04 11:35:49;;;;;;;91.60;50.77;;;33.60;1.00;;;;;;6245332;23;20956;-80
2021/06/04 11:38:29;;;;;;;81.23;30.03;;;34.40;1.00;;;;;;6245915;23;20749;-81
2021/06/04 11:41:05;;;;;;;84.17;38.03;;;33.90;1.00;;;;;;6177596;23;20514;-83
2021/06/04 11:43:34;;;;;;;85.20;24.13;;;34.40;1.00;;;;;;6246268;23;20514;-79
2021/06/04 11:46:16;;;;;;;75.37;21.70;;;35.10;1.00;;;;;;6247560;23;20396;-78
2021/06/04 11:49:07;;;;;;;81.77;23.87;;;35.20;1.00;;;;;;6246361;23;20474;-79
2021/06/04 11:51:40;;;;;;;80.70;25.00;;;34.60;1.00;;;;;;6247768;23;20403;-80
2021/06/04 11:54:38;;;;;;;79.90;26.57;;;33.70;1.00;;;;;;6247816;23;20451;-79
2021/06/04 11:57:08;;;;;;;74.70;21.20;;;34.40;1.00;;;;;;6247573;23;20381;-79
2021/06/04 12:00:03;;;;;;;82.90;21.87;;;34.60;1.00;;;;;;6247714;23;20725;-79
2021/06/04 12:02:39;;;;;;;77.43;22.30;;;34.30;1.00;;;;;;6246167;23;20510;-79
2021/06/04 12:05:38;;;;;;;78.40;24.37;;;35.10;1.00;;;;;;6247539;23;20462;-79
2021/06/04 12:08:34;;;;;;;80.27;27.27;;;34.60;1.00;;;;;;6234410;23;20927;-80
2021/06/04 12:11:22;;;;;;;81.93;25.57;;;34.80;1.00;;;;;;6230167;23;20495;-79
2021/06/04 12:14:11;;;;;;;80.00;24.00;;;36.10;1.00;;;;;;6242423;23;20446;-79
2021/06/04 12:16:38;;;;;;;81.73;24.67;;;35.60;1.00;;;;;;6246510;23;20403;-78
2021/06/04 12:19:06;;;;;;;82.27;23.90;;;34.10;1.00;;;;;;6247128;23;20434;-79
2021/06/04 12:22:05;;;;;;;84.57;27.10;;;33.20;1.00;;;;;;6247353;23;20462;-79
2021/06/04 12:24:54;;;;;;;88.83;31.20;;;33.20;1.00;;;;;;6257803;23;20699;-79
2021/06/04 12:28:11;;;;;;;83.73;31.40;;;32.50;1.00;;;;;;6227704;23;20498;-80
2021/06/04 12:30:57;;;;;;;82.23;36.30;;;31.60;1.00;;;;;;6247281;22;20433;-78
2021/06/04 12:33:41;;;;;;;87.93;43.37;;;31.00;1.00;;;;;;6245706;23;20435;-80
2021/06/04 12:36:55;;;;;;;85.87;42.60;;;30.60;1.00;;;;;;6247177;23;20486;-82
2021/06/04 12:39:49;;;;;;;80.57;37.30;;;30.20;1.00;;;;;;6246724;23;20399;-81
2021/06/04 12:42:34;;;;;;;79.17;34.20;;;29.90;1.00;;;;;;6247251;23;20430;-79
2021/06/04 12:45:11;;;;;;;84.73;28.43;;;29.50;1.00;;;;;;6245566;23;20717;-81
2021/06/04 12:47:49;;;;;;;82.47;26.47;;;29.10;1.00;;;;;;6245741;23;20403;-82
2021/06/04 12:50:22;;;;;;;75.20;21.20;;;29.40;1.00;;;;;;6247035;23;20439;-82
2021/06/04 12:52:52;;;;;;;79.10;21.70;;;29.70;1.00;;;;;;6257484;23;20424;-81
2021/06/04 12:55:26;;;;;;;77.20;21.07;;;29.70;1.00;;;;;;6246410;23;20705;-80
2021/06/04 12:57:53;;;;;;;80.80;23.20;;;29.10;1.00;;;;;;6247172;23;20410;-80
2021/06/04 13:00:27;;;;;;;77.13;21.83;;;28.90;1.00;;;;;;6247207;23;20422;-82
2021/06/04 13:02:57;;;;;;;81.73;22.13;;;28.90;1.00;;;;;;6245579;23;20514;-82
2021/06/04 13:05:28;;;;;;;77.10;21.93;;;28.50;1.00;;;;;;6247102;23;20486;-85
2021/06/04 13:07:56;;;;;;;79.47;21.93;;;28.40;1.00;;;;;;6247004;23;20490;-80
2021/06/04 13:10:25;;;;;;;73.40;20.33;;;28.30;1.00;;;;;;6247012;23;20370;-81
2021/06/04 13:12:56;;;;;;;78.00;24.20;;;27.90;1.00;;;;;;6246597;23;20486;-80
2021/06/04 13:15:29;;;;;;;76.20;22.77;;;27.60;1.00;;;;;;6246988;23;20400;-84
2021/06/04 13:17:59;;;;;;;73.50;19.87;;;27.50;1.00;;;;;;6245545;23;20374;-83
2021/06/04 13:20:32;;;;;;;75.07;19.40;;;27.50;4.60;;;;;;6246564;23;20456;-82
2021/06/04 13:23:17;;;;;;;75.70;19.70;;;27.30;1.50;;;;;;6246780;23;20777;-84
2021/06/04 13:26:29;;;;;;;75.90;22.00;;;27.00;1.00;;;;;;6246912;23;20711;-84
2021/06/04 13:29:03;;;;;;;81.47;21.80;;;27.20;1.40;;;;;;6222827;23;20421;-84
2021/06/04 13:34:43;;;;;;;;;;;;;;;;;;;;;
2021/06/04 13:38:05;;;;;;;;;;;;;;;;;;;;;
2021/06/04 14:08:05;;;;;;;79.37;22.73;;;33.30;1.00;;;;;;6006565;23;20421;-79
2021/06/04 14:10:47;;;;;;;78.47;22.20;;;32.90;1.00;;;;;;6107340;23;20413;-80
2021/06/04 14:13:16;;;;;;;78.60;21.90;;;32.60;1.00;;;;;;6240092;23;20791;-79
2021/06/04 14:16:02;;;;;;;78.70;20.60;;;31.50;1.00;;;;;;6246377;23;20466;-79
2021/06/04 14:18:55;;;;;;;78.67;28.00;;;31.30;1.00;;;;;;6244307;23;20880;-80
2021/06/04 14:21:49;;;;;;;76.53;19.03;;;31.30;1.00;;;;;;6246206;23;20406;-82
2021/06/04 14:24:54;;;;;;;74.70;19.00;;;31.50;1.00;;;;;;6246288;23;20473;-81
2021/06/04 14:27:30;;;;;;;76.27;20.67;;;31.60;1.00;;;;;;6245903;23;20377;-83
2021/06/04 14:29:59;;;;;;;78.47;18.80;;;32.00;1.00;;;;;;6246221;22;20509;-84
2021/06/04 14:32:29;;;;;;;72.07;17.67;;;31.70;1.00;;;;;;6244804;23;20517;-84
2021/06/04 14:35:08;;;;;;;77.97;21.77;;;31.60;1.00;;;;;;6245877;23;20438;-83
2021/06/04 14:37:40;;;;;;;76.10;18.50;;;31.40;1.00;;;;;;6245741;23;20399;-83
2021/06/04 14:40:18;;;;;;;81.13;19.43;;;30.60;1.00;;;;;;6245883;23;20436;-83
2021/06/04 14:42:44;;;;;;;77.10;21.07;;;29.90;1.00;;;;;;6255757;23;20954;-83
2021/06/04 14:45:12;;;;;;;80.97;21.23;;;30.10;1.00;;;;;;6246127;23;20439;-83
2021/06/04 14:47:40;;;;;;;76.83;20.50;;;30.40;1.00;;;;;;6244481;23;20472;-84
2021/06/04 14:50:09;;;;;;;77.63;20.30;;;29.90;1.00;;;;;;6245720;23;20441;-83
2021/06/04 14:52:35;;;;;;;76.90;20.50;;;29.40;1.00;;;;;;6246155;23;20431;-83
2021/06/04 14:55:04;;;;;;;80.33;20.00;;;29.40;1.00;;;;;;6245985;23;20482;-82
2021/06/04 14:57:31;;;;;;;75.53;21.60;;;29.20;1.00;;;;;;6246121;23;20478;-82
2021/06/04 14:59:58;;;;;;;74.40;22.63;;;29.40;1.00;;;;;;6246047;23;20739;-82
2021/06/04 15:02:25;;;;;;;74.23;20.23;;;29.40;1.00;;;;;;6244296;23;20484;-82
2021/06/04 15:04:53;;;;;;;74.47;19.30;;;28.90;1.00;;;;;;6245969;23;20407;-83
2021/06/04 15:07:20;;;;;;;69.50;17.17;;;28.60;1.00;;;;;;6245995;23;20423;-83
2021/06/04 15:09:46;;;;;;;76.33;21.33;;;28.40;1.00;;;;;;6246044;23;20403;-81
2021/06/04 15:12:15;;;;;;;75.00;19.30;;;28.30;1.00;;;;;;6245930;23;20486;-77
2021/06/04 15:14:44;;;;;;;74.73;18.50;;;28.10;1.00;;;;;;6246039;23;20381;-82
2021/06/04 15:17:11;;;;;;;72.90;17.00;;;27.90;1.00;;;;;;6254147;23;20407;-81
2021/06/04 15:19:38;;;;;;;74.57;16.50;;;27.80;1.00;;;;;;6246967;23;20403;-85
2021/06/04 15:22:05;;;;;;;78.23;20.30;;;28.00;1.90;;;;;;6247015;23;20423;-81
2021/06/04 15:24:34;;;;;;;79.30;21.07;;;28.20;2.80;;;;;;6247275;23;20449;-87
2021/06/04 15:27:02;;;;;;;74.40;17.50;;;28.40;1.30;;;;;;6247623;23;20399;-83
2021/06/04 15:29:29;;;;;;;75.43;21.43;;;28.50;1.00;;;;;;6257460;22;21091;-83
2021/06/04 15:31:56;;;;;;;73.67;19.30;;;28.50;1.00;;;;;;6256273;23;20386;-83
2021/06/04 15:34:26;;;;;;;74.13;20.17;;;28.40;1.00;;;;;;6247904;23;20423;-83
2021/06/04 15:36:56;;;;;;;72.77;19.20;;;28.60;1.00;;;;;;6247696;23;20374;-81
2021/06/04 15:39:23;;;;;;;75.43;21.57;;;28.90;1.00;;;;;;6247734;23;20410;-86
2021/06/04 15:41:52;;;;;;;75.87;18.10;;;29.10;1.00;;;;;;6247246;23;20484;-85
2021/06/04 15:44:30;;;;;;;78.27;19.80;;;29.50;1.00;;;;;;6247696;23;20403;-83
2021/06/04 15:47:25;;;;;;;75.03;19.80;;;29.90;1.00;;;;;;6256049;23;20870;-83
2021/06/04 15:49:51;;;;;;;74.03;21.53;;;30.00;1.00;;;;;;6247206;23;20402;-83
2021/06/04 15:52:18;;;;;;;74.57;20.80;;;29.80;1.00;;;;;;6247760;23;20373;-83
2021/06/04 15:54:47;;;;;;;72.47;20.90;;;29.60;1.00;;;;;;6247303;23;20399;-83
2021/06/04 15:57:16;;;;;;;75.07;20.30;;;29.20;1.00;;;;;;6257060;23;20407;-84
2021/06/04 15:59:44;;;;;;;77.50;20.70;;;29.00;1.00;;;;;;6247266;23;20448;-84
2021/06/04 16:02:15;;;;;;;71.80;15.10;;;29.00;1.00;;;;;;6245920;23;20401;-84
2021/06/04 16:04:47;;;;;;;71.77;18.83;;;28.80;1.00;;;;;;6247603;23;20401;-84
2021/06/04 16:07:16;;;;;;;68.27;16.30;;;28.40;1.00;;;;;;6246961;23;20373;-84
2021/06/04 16:10:17;;;;;;;;;;;;;;;;;;;;;
2021/06/04 16:13:37;;;;;;;74.30;19.80;;;28.00;1.00;;;;;;6235921;23;20381;-83
2021/06/04 16:22:21;;;;;;;78.47;27.40;;;27.40;4.60;;;;;;5923632;23;20424;-84
2021/06/04 16:25:06;;;;;;;78.73;31.40;;;27.20;3.00;;;;;;6249847;23;20418;-84
2021/06/04 16:28:30;;;;;;;75.17;26.17;;;27.10;4.20;;;;;;6256988;23;20461;-85
2021/06/04 16:31:27;;;;;;;;;;;;;;;;;;;;;
2021/06/04 16:34:15;;;;;;;73.73;25.60;;;26.70;9.80;;;;;;6244999;23;20411;-83
2021/06/04 16:36:42;;;;;;;81.17;24.57;;;26.50;7.50;;;;;;6247406;23;20406;-84
2021/06/04 16:39:12;;;;;;;75.47;25.40;;;26.30;12.20;;;;;;6246793;23;20871;-85
2021/06/04 16:41:42;;;;;;;77.37;24.50;;;26.10;11.40;;;;;;6247075;23;20423;-86
2021/06/04 16:57:48;;;;;;;62.43;11.30;;;25.20;8.30;;;;;;5934357;24;20412;-88
2021/06/04 17:04:53;;;;;;;67.70;21.03;;;24.40;17.70;;;;;;5813257;24;20416;-86
2021/06/04 17:07:25;;;;;;;199.33;184.87;;;22.80;37.90;;;;;;5828655;23;20499;-85
2021/06/04 17:09:51;;;;;;;164.20;152.30;;;21.50;99.90;;;;;;6066754;23;20970;-83
2021/06/04 17:12:20;;;;;;;97.17;87.33;;;20.30;99.90;;;;;;6186102;23;20419;-84
2021/06/04 17:14:53;;;;;;;130.23;119.97;;;19.40;99.90;;;;;;6195773;23;20410;-84
2021/06/04 17:17:24;;;;;;;129.30;119.57;;;18.70;99.90;;;;;;6184846;23;20768;-85
2021/06/04 17:23:21;;;;;;;73.43;66.63;;;18.00;99.90;;;;;;6117985;23;20509;-79
2021/06/04 17:38:41;;;;;;;36.57;22.40;;;16.70;99.90;;;;;;5933791;24;20432;-83
2021/06/04 17:41:08;;;;;;;39.37;32.93;;;16.70;99.90;;;;;;5937941;23;20926;-81
2021/06/04 17:43:34;;;;;;;33.50;17.03;;;16.80;99.90;;;;;;6009453;23;21005;-80
2021/06/04 17:46:00;;;;;;;32.63;13.03;;;16.90;99.90;;;;;;6102189;23;20503;-81
2021/06/04 17:48:28;;;;;;;35.90;19.07;;;17.20;99.90;;;;;;6184497;23;20475;-83
2021/06/04 17:55:29;;;;;;;;;;;;;;;;;;;;;
2021/06/04 18:01:20;;;;;;;39.80;35.50;;;17.60;99.90;;;;;;5949327;23;20427;-86
2021/06/04 18:04:32;;;;;;;45.00;40.43;;;17.70;99.90;;;;;;6016117;23;20528;-84
2021/06/04 18:10:00;;;;;;;61.27;56.17;;;17.90;99.90;;;;;;6012478;23;20418;-79
2021/06/04 18:37:02;;;;;;;42.30;38.10;;;17.30;99.90;;;;;;6272962;22;20469;-88
2021/06/04 18:39:29;;;;;;;44.40;40.03;;;17.30;99.90;;;;;;6264700;22;20409;-80
2021/06/04 18:49:26;;;;;;;47.33;42.97;;;17.20;99.90;;;;;;5937807;24;20418;-86
2021/06/04 19:38:00;;;;;;;78.23;72.83;;;17.30;99.90;;;;;;5879789;24;20815;-82
2021/06/04 19:40:32;;;;;;;85.30;79.67;;;17.20;99.90;;;;;;6149340;23;20406;-83
2021/06/04 19:43:09;;;;;;;72.80;67.60;;;17.20;99.90;;;;;;6255311;23;20434;-83
2021/06/04 19:45:38;;;;;;;69.93;64.70;;;17.20;99.90;;;;;;6255289;23;20417;-83
2021/06/04 19:48:07;;;;;;;79.00;73.50;;;17.20;99.90;;;;;;6244237;23;20454;-82
2021/06/04 19:50:33;;;;;;;79.37;73.53;;;17.20;99.90;;;;;;6245533;23;20437;-83
2021/06/04 19:53:00;;;;;;;61.40;56.50;;;17.30;99.90;;;;;;6255515;23;20403;-83
2021/06/04 19:55:28;;;;;;;95.13;89.13;;;17.30;99.90;;;;;;6255958;23;20406;-82
2021/06/04 19:57:55;;;;;;;91.97;86.13;;;17.30;99.90;;;;;;6245426;23;20395;-83
2021/06/04 20:00:24;;;;;;;91.23;85.43;;;17.30;99.90;;;;;;6244943;23;20426;-82
2021/06/04 20:02:51;;;;;;;91.07;85.27;;;17.30;99.90;;;;;;6253970;23;20443;-83
2021/06/04 20:05:19;;;;;;;94.60;88.70;;;17.20;99.90;;;;;;6256710;23;20414;-83
2021/06/04 20:07:46;;;;;;;100.63;94.63;;;17.20;99.90;;;;;;6257224;23;20778;-82